Time,TemperatureF,DewpointF,PressureIn,WindDirection,WindDirectionDegrees,WindSpeedMPH,WindSpeedGustMPH,Humidity,HourlyPrecipIn,Conditions,Clouds,dailyrainin,SolarRadiationWatts/m^2,SoftwareType,DateUTC
2013-02-24 00:04:00,31.0,28.4,30.26,NNW,346,3.5,3.5,90,0.00,CLR,,0.00,0.0,WeatherDisplay:10.37,2013-02-24 00:04:00,
2013-02-24 00:09:00,31.0,28.4,30.26,NNW,347,2.3,2.3,90,0.00,CLR,,0.00,0.0,WeatherDisplay:10.37,2013-02-24 00:09:00,
2013-02-24 00:14:00,31.1,28.5,30.26,NNW,344,3.5,3.5,90,0.00,CLR,,0.00,0.0,WeatherDisplay:10.37,2013-02-24 00:14:00,
2013-02-24 00:19:00,31.1,28.5,30.26,NNW,345,1.2,1.2,90,0.00,CLR,,0.00,0.0,WeatherDisplay:10.37,2013-02-24 00:19:00,
2013-02-24 00:24:00,31.2,28.6,30.26,NNW,344,4.0,4.0,90,0.00,CLR,,0.00,0.0,WeatherDisplay:10.37,2013-02-24 00:24:00,
2013-02-24 00:29:00,31.2,28.6,30.26,NNW,344,0.0,1.1,90,0.00,CLR,,0.00,0.0,WeatherDisplay:10.37,2013-02-24 00:29:00,
2013-02-24 00:34:00,31.3,28.7,30.26,NNW,342,3.5,3.5,90,0.00,CLR,,0.00,0.0,WeatherDisplay:10.37,2013-02-24 00:34:00,
2013-02-24 00:39:00,31.4,28.8,30.26,NNW,341,4.6,4.6,90,0.00,CLR,,0.00,0.0,WeatherDisplay:10.37,2013-02-24 00:39:00,
2013-02-24 00:44:00,31.4,28.8,30.26,NNW,336,4.0,4.0,90,0.00,CLR,,0.00,0.0,WeatherDisplay:10.37,2013-02-24 00:44:00,
2013-02-24 00:49:00,31.5,28.9,30.26,NNW,336,3.0,3.0,90,0.00,CLR,,0.00,0.0,WeatherDisplay:10.37,2013-02-24 00:49:00,
2013-02-24 00:54:00,31.5,28.9,30.26,NNW,336,1.2,1.2,90,0.00,CLR,,0.00,0.0,WeatherDisplay:10.37,2013-02-24 00:54:00,
2013-02-24 00:59:00,31.5,28.9,30.25,NNW,340,3.5,3.5,90,0.00,CLR,,0.00,0.0,WeatherDisplay:10.37,2013-02-24 00:59:00,
2013-02-24 01:04:00,31.5,28.9,30.25,NNW,341,5.0,5.0,90,0.00,CLR,,0.00,0.0,WeatherDisplay:10.37,2013-02-24 01:04:00,
2013-02-24 01:09:00,31.5,28.9,30.25,NNW,337,3.5,3.5,90,0.00,CLR,,0.00,0.0,WeatherDisplay:10.37,2013-02-24 01:09:00,
2013-02-24 01:14:00,31.5,28.9,30.25,NNW,336,0.0,0.7,90,0.00,CLR,,0.00,0.0,WeatherDisplay:10.37,2013-02-24 01:14:00,
2013-02-24 01:19:00,31.6,29.0,30.25,NNW,336,1.2,1.2,90,0.00,CLR,,0.00,0.0,WeatherDisplay:10.37,2013-02-24 01:19:00,
2013-02-24 01:24:00,31.6,29.0,30.25,NNW,336,0.0,0.0,90,0.00,CLR,,0.00,0.0,WeatherDisplay:10.37,2013-02-24 01:24:00,
2013-02-24 01:29:00,31.6,29.0,30.25,NNW,336,3.5,3.5,90,0.00,CLR,,0.00,0.0,WeatherDisplay:10.37,2013-02-24 01:29:00,
2013-02-24 01:34:00,31.7,29.1,30.25,NNW,336,2.3,2.3,90,0.00,CLR,,0.00,0.0,WeatherDisplay:10.37,2013-02-24 01:34:00,
2013-02-24 01:39:00,31.7,29.1,30.25,NNW,338,4.6,4.6,90,0.00,CLR,,0.00,0.0,WeatherDisplay:10.37,2013-02-24 01:39:00,
2013-02-24 01:44:00,31.8,29.2,30.25,NNW,339,1.2,1.2,90,0.00,CLR,,0.00,0.0,WeatherDisplay:10.37,2013-02-24 01:44:00,
2013-02-24 01:49:00,31.8,29.2,30.25,NNW,338,2.3,2.3,90,0.00,CLR,,0.00,0.0,WeatherDisplay:10.37,2013-02-24 01:49:00,
2013-02-24 01:54:00,31.8,29.2,30.25,NNW,338,0.0,0.0,90,0.00,CLR,,0.00,0.0,WeatherDisplay:10.37,2013-02-24 01:54:00,
2013-02-24 01:59:00,31.8,29.2,30.25,NNW,339,4.6,4.6,90,0.00,CLR,,0.00,0.0,WeatherDisplay:10.37,2013-02-24 01:59:00,
2013-02-24 02:04:00,31.9,29.3,30.25,NNW,339,3.5,3.5,90,0.00,CLR,,0.00,0.0,WeatherDisplay:10.37,2013-02-24 02:04:00,
2013-02-24 02:09:00,31.9,29.3,30.25,NNW,337,1.2,1.2,90,0.00,CLR,,0.00,0.0,WeatherDisplay:10.37,2013-02-24 02:09:00,
2013-02-24 02:14:00,31.9,29.3,30.25,NNW,338,5.0,5.0,90,0.00,CLR,,0.00,0.0,WeatherDisplay:10.37,2013-02-24 02:14:00,
2013-02-24 02:19:00,31.9,29.3,30.25,NNW,336,4.6,4.6,90,0.00,CLR,,0.00,0.0,WeatherDisplay:10.37,2013-02-24 02:19:00,
2013-02-24 02:24:00,31.9,29.3,30.25,NNW,336,2.3,2.3,90,0.00,CLR,,0.00,0.0,WeatherDisplay:10.37,2013-02-24 02:24:00,
2013-02-24 02:29:00,31.9,29.3,30.25,NNW,335,3.5,3.5,90,0.00,CLR,,0.00,0.0,WeatherDisplay:10.37,2013-02-24 02:29:00,
2013-02-24 02:34:00,31.9,29.3,30.25,NNW,335,3.5,3.5,90,0.00,CLR,,0.00,0.0,WeatherDisplay:10.37,2013-02-24 02:34:00,
2013-02-24 02:39:00,32.0,29.4,30.25,NNW,341,4.6,4.6,90,0.00,CLR,,0.00,0.0,WeatherDisplay:10.37,2013-02-24 02:39:00,
2013-02-24 02:44:00,32.0,29.4,30.25,NNW,341,3.5,3.5,90,0.00,CLR,,0.00,0.0,WeatherDisplay:10.37,2013-02-24 02:44:00,
2013-02-24 02:49:00,32.0,29.4,30.25,NNW,340,5.8,5.8,90,0.00,CLR,,0.00,0.0,WeatherDisplay:10.37,2013-02-24 02:49:00,
2013-02-24 02:54:00,32.0,29.4,30.25,NNW,338,4.0,4.0,90,0.00,CLR,,0.00,0.0,WeatherDisplay:10.37,2013-02-24 02:54:00,
2013-02-24 02:59:00,32.0,29.4,30.25,NNW,336,3.5,3.5,90,0.00,CLR,,0.00,0.0,WeatherDisplay:10.37,2013-02-24 02:59:00,
2013-02-24 03:04:00,32.0,29.4,30.25,NNW,335,4.0,4.0,90,0.00,CLR,,0.00,0.0,WeatherDisplay:10.37,2013-02-24 03:04:00,
2013-02-24 03:09:00,32.0,29.4,30.25,NNW,330,3.5,3.5,90,0.00,CLR,,0.00,0.0,WeatherDisplay:10.37,2013-02-24 03:09:00,
2013-02-24 03:14:00,32.0,29.4,30.25,NNW,329,4.6,4.6,90,0.00,CLR,,0.00,0.0,WeatherDisplay:10.37,2013-02-24 03:14:00,
2013-02-24 03:19:00,32.0,29.4,30.25,NNW,329,4.6,4.6,90,0.00,CLR,,0.00,0.0,WeatherDisplay:10.37,2013-02-24 03:19:00,
2013-02-24 03:24:00,32.0,29.1,30.25,NNW,330,1.2,0.0,89,0.00,CLR,,0.00,0.0,WeatherDisplay:10.37,2013-02-24 03:24:00,
2013-02-24 03:29:00,32.0,29.1,30.25,NNW,331,3.5,3.5,89,0.00,CLR,,0.00,0.0,WeatherDisplay:10.37,2013-02-24 03:29:00,
2013-02-24 03:34:00,32.0,30.7,30.25,NNW,330,3.5,3.5,95,0.00,CLR,,0.00,0.0,WeatherDisplay:10.37,2013-02-24 03:34:00,
2013-02-24 03:39:00,32.0,30.7,30.25,NW,322,6.0,6.0,95,0.00,CLR,,0.00,0.0,WeatherDisplay:10.37,2013-02-24 03:39:00,
2013-02-24 03:44:00,32.0,29.1,30.25,NW,323,3.5,3.5,89,0.00,CLR,,0.00,0.0,WeatherDisplay:10.37,2013-02-24 03:44:00,
2013-02-24 03:49:00,32.1,28.9,30.25,NNW,332,4.0,4.0,88,0.00,CLR,,0.00,0.0,WeatherDisplay:10.37,2013-02-24 03:49:00,
2013-02-24 03:54:00,32.1,28.9,30.25,NNW,331,4.6,4.6,88,0.00,CLR,,0.00,0.0,WeatherDisplay:10.37,2013-02-24 03:54:00,
2013-02-24 03:59:00,32.1,28.9,30.25,NNW,333,3.5,3.5,88,0.00,CLR,,0.00,0.0,WeatherDisplay:10.37,2013-02-24 03:59:00,
2013-02-24 04:05:00,32.1,28.9,30.25,NNW,333,2.3,2.3,88,0.00,CLR,,0.00,0.0,WeatherDisplay:10.37,2013-02-24 04:05:00,
2013-02-24 04:10:00,32.1,28.9,30.25,NNW,333,3.5,3.5,88,0.00,CLR,,0.00,0.0,WeatherDisplay:10.37,2013-02-24 04:10:00,
2013-02-24 04:15:00,32.1,28.9,30.25,NNW,333,3.5,3.5,88,0.00,CLR,,0.00,0.0,WeatherDisplay:10.37,2013-02-24 04:15:00,
2013-02-24 04:20:00,32.1,28.9,30.25,NNW,333,3.5,3.5,88,0.00,CLR,,0.00,0.0,WeatherDisplay:10.37,2013-02-24 04:20:00,
2013-02-24 04:25:00,32.1,28.9,30.25,NNW,333,2.3,2.3,88,0.00,CLR,,0.00,0.0,WeatherDisplay:10.37,2013-02-24 04:25:00,
2013-02-24 04:30:00,32.1,28.9,30.25,NNW,335,4.6,4.6,88,0.00,CLR,,0.00,0.0,WeatherDisplay:10.37,2013-02-24 04:30:00,
2013-02-24 04:35:00,32.1,28.9,30.25,NNW,345,3.5,3.5,88,0.00,CLR,,0.00,0.0,WeatherDisplay:10.37,2013-02-24 04:35:00,
2013-02-24 04:40:00,32.1,28.9,30.25,NNW,344,2.0,2.0,88,0.00,CLR,,0.00,0.0,WeatherDisplay:10.37,2013-02-24 04:40:00,
2013-02-24 04:45:00,32.1,28.9,30.25,NNW,333,0.0,0.0,88,0.00,CLR,,0.00,0.0,WeatherDisplay:10.37,2013-02-24 04:45:00,
2013-02-24 04:50:00,32.1,28.9,30.25,NNW,342,4.6,4.6,88,0.00,CLR,,0.00,0.0,WeatherDisplay:10.37,2013-02-24 04:50:00,
2013-02-24 04:55:00,32.1,28.9,30.25,NNW,334,3.5,3.5,88,0.00,CLR,,0.00,0.0,WeatherDisplay:10.37,2013-02-24 04:55:00,
2013-02-24 05:00:00,32.1,28.9,30.25,NNW,336,4.6,4.6,88,0.00,CLR,,0.00,0.0,WeatherDisplay:10.37,2013-02-24 05:00:00,
2013-02-24 05:05:00,32.1,28.7,30.25,NNW,336,5.8,5.8,87,0.00,CLR,,0.00,0.0,WeatherDisplay:10.37,2013-02-24 05:05:00,
2013-02-24 05:10:00,32.1,28.7,30.25,NNW,336,4.6,4.6,87,0.00,CLR,,0.00,0.0,WeatherDisplay:10.37,2013-02-24 05:10:00,
2013-02-24 05:15:00,32.1,28.7,30.25,NNW,333,4.6,4.6,87,0.00,CLR,,0.00,0.0,WeatherDisplay:10.37,2013-02-24 05:15:00,
2013-02-24 05:20:00,32.1,28.7,30.25,NNW,334,3.5,0.0,87,0.00,CLR,,0.00,0.0,WeatherDisplay:10.37,2013-02-24 05:20:00,
2013-02-24 05:25:00,32.1,28.7,30.25,NNW,335,4.6,4.6,87,0.00,CLR,,0.00,0.0,WeatherDisplay:10.37,2013-02-24 05:25:00,
2013-02-24 05:30:00,32.1,28.4,30.25,NNW,336,3.5,3.5,86,0.00,CLR,,0.00,0.0,WeatherDisplay:10.37,2013-02-24 05:30:00,
2013-02-24 05:35:00,32.1,28.4,30.25,NNW,336,6.9,6.9,86,0.00,CLR,,0.00,0.0,WeatherDisplay:10.37,2013-02-24 05:35:00,
2013-02-24 05:40:00,32.1,28.4,30.25,NNW,338,4.6,4.6,86,0.00,CLR,,0.00,0.0,WeatherDisplay:10.37,2013-02-24 05:40:00,
2013-02-24 05:45:00,32.1,28.4,30.25,NNW,337,3.5,3.5,86,0.00,CLR,,0.00,0.0,WeatherDisplay:10.37,2013-02-24 05:45:00,
2013-02-24 05:50:00,32.1,28.1,30.25,NNW,336,3.5,3.5,85,0.00,CLR,,0.00,0.0,WeatherDisplay:10.37,2013-02-24 05:50:00,
2013-02-24 05:55:00,32.1,28.1,30.25,NNW,338,1.2,1.2,85,0.00,CLR,,0.00,0.0,WeatherDisplay:10.37,2013-02-24 05:55:00,
2013-02-24 06:00:00,32.1,28.1,30.25,NNW,348,5.8,5.8,85,0.00,CLR,,0.00,0.0,WeatherDisplay:10.37,2013-02-24 06:00:00,
2013-02-24 06:05:00,32.1,28.1,30.25,NNW,333,2.3,2.3,85,0.00,CLR,,0.00,0.0,WeatherDisplay:10.37,2013-02-24 06:05:00,
2013-02-24 06:10:00,32.1,28.1,30.26,NNW,333,3.5,3.5,85,0.00,CLR,,0.00,0.0,WeatherDisplay:10.37,2013-02-24 06:10:00,
2013-02-24 06:15:00,32.1,28.1,30.26,NNW,334,7.0,7.0,85,0.00,CLR,,0.00,0.0,WeatherDisplay:10.37,2013-02-24 06:15:00,
2013-02-24 06:20:00,32.1,28.1,30.26,NNW,342,3.5,3.5,85,0.00,CLR,,0.00,0.0,WeatherDisplay:10.37,2013-02-24 06:20:00,
2013-02-24 06:25:00,32.2,28.2,30.26,NNW,345,3.5,0.0,85,0.00,CLR,,0.00,0.0,WeatherDisplay:10.37,2013-02-24 06:25:00,
2013-02-24 06:30:00,32.2,28.2,30.26,NNW,341,4.0,4.1,85,0.00,OVC,,0.00,0.0,WeatherDisplay:10.37,2013-02-24 06:30:00,
2013-02-24 06:35:00,32.2,28.2,30.26,NNW,342,2.3,2.3,85,0.00,OVC,,0.00,0.0,WeatherDisplay:10.37,2013-02-24 06:35:00,
2013-02-24 06:40:00,32.2,28.2,30.26,NNW,344,5.8,5.8,85,0.00,OVC,,0.00,0.0,WeatherDisplay:10.37,2013-02-24 06:40:00,
2013-02-24 06:45:00,32.2,28.2,30.26,NNW,347,5.8,5.8,85,0.00,OVC,,0.00,0.0,WeatherDisplay:10.37,2013-02-24 06:45:00,
2013-02-24 06:50:00,32.2,28.2,30.26,NNW,347,2.3,2.3,85,0.00,OVC,,0.00,0.0,WeatherDisplay:10.37,2013-02-24 06:50:00,
2013-02-24 06:55:00,32.1,28.1,30.27,NNW,337,3.5,3.5,85,0.00,OVC,,0.00,0.0,WeatherDisplay:10.37,2013-02-24 06:55:00,
2013-02-24 07:00:00,32.2,28.2,30.27,NNW,339,6.0,6.0,85,0.00,OVC,,0.00,0.0,WeatherDisplay:10.37,2013-02-24 07:00:00,
2013-02-24 07:05:00,32.1,28.1,30.27,NNW,333,10.0,10.0,85,0.00,OVC,,0.00,0.0,WeatherDisplay:10.37,2013-02-24 07:05:00,
2013-02-24 07:10:00,32.2,28.2,30.26,NNW,346,9.0,9.0,85,0.00,OVC,,0.00,0.0,WeatherDisplay:10.37,2013-02-24 07:10:00,
2013-02-24 07:15:00,32.1,28.1,30.26,North,355,5.0,5.0,85,0.00,OVC,,0.00,0.0,WeatherDisplay:10.37,2013-02-24 07:15:00,
2013-02-24 07:20:00,32.1,28.1,30.27,North,355,6.0,6.0,85,0.00,OVC,,0.00,0.0,WeatherDisplay:10.37,2013-02-24 07:20:00,
2013-02-24 07:25:00,32.2,28.2,30.27,North,355,4.0,4.0,85,0.00,OVC,,0.00,0.0,WeatherDisplay:10.37,2013-02-24 07:25:00,
2013-02-24 07:30:00,32.2,28.2,30.27,North,355,5.8,5.8,85,0.00,BKN,,0.00,5.0,WeatherDisplay:10.37,2013-02-24 07:30:00,
2013-02-24 07:35:00,32.1,28.1,30.27,North,351,3.5,3.5,85,0.00,BKN,,0.00,7.0,WeatherDisplay:10.37,2013-02-24 07:35:00,
2013-02-24 07:40:00,32.1,28.1,30.27,NNW,341,4.6,4.6,85,0.00,BKN,,0.00,11.0,WeatherDisplay:10.37,2013-02-24 07:40:00,
2013-02-24 07:45:00,32.1,28.1,30.27,NNW,343,5.8,5.8,85,0.00,BKN,,0.00,11.0,WeatherDisplay:10.37,2013-02-24 07:45:00,
2013-02-24 07:50:00,32.1,28.1,30.27,NNW,344,5.8,5.8,85,0.00,BKN,,0.00,11.0,WeatherDisplay:10.37,2013-02-24 07:50:00,
2013-02-24 07:55:00,32.1,28.1,30.27,NNW,337,5.8,5.8,85,0.00,BKN,,0.00,12.0,WeatherDisplay:10.37,2013-02-24 07:55:00,
2013-02-24 08:00:00,32.1,28.1,30.27,NNW,337,4.6,4.6,85,0.00,BKN,,0.00,12.0,WeatherDisplay:10.37,2013-02-24 08:00:00,
2013-02-24 08:05:00,32.2,28.2,30.27,NNW,338,4.6,4.6,85,0.00,BKN,,0.00,14.0,WeatherDisplay:10.37,2013-02-24 08:05:00,
2013-02-24 08:10:00,32.2,28.2,30.27,NNW,337,4.6,4.6,85,0.00,BKN,,0.00,14.0,WeatherDisplay:10.37,2013-02-24 08:10:00,
2013-02-24 08:15:00,32.2,28.2,30.27,NNW,344,3.5,3.5,85,0.00,BKN,,0.00,14.0,WeatherDisplay:10.37,2013-02-24 08:15:00,
2013-02-24 08:20:00,32.2,28.2,30.27,NNW,338,3.5,3.5,85,0.00,BKN,,0.00,19.0,WeatherDisplay:10.37,2013-02-24 08:20:00,
2013-02-24 08:25:00,32.2,28.2,30.28,NNW,346,7.0,7.0,85,0.00,BKN,,0.00,19.0,WeatherDisplay:10.37,2013-02-24 08:25:00,
2013-02-24 08:30:00,32.3,28.3,30.28,NNW,346,10.4,10.4,85,0.00,BKN,,0.00,25.0,WeatherDisplay:10.37,2013-02-24 08:30:00,
2013-02-24 08:35:00,32.3,28.3,30.28,NNW,347,1.2,1.2,85,0.00,BKN,,0.00,23.0,WeatherDisplay:10.37,2013-02-24 08:35:00,
2013-02-24 08:40:00,32.4,28.4,30.28,NNW,344,5.8,5.8,85,0.00,BKN,,0.00,26.0,WeatherDisplay:10.37,2013-02-24 08:40:00,
2013-02-24 08:45:00,32.4,28.1,30.28,NNW,341,3.5,3.5,84,0.00,BKN,,0.00,28.0,WeatherDisplay:10.37,2013-02-24 08:45:00,
2013-02-24 08:51:00,32.4,28.1,30.28,NNW,341,4.6,4.6,84,0.00,BKN,,0.00,33.0,WeatherDisplay:10.37,2013-02-24 08:51:00,
2013-02-24 08:56:00,32.5,28.2,30.28,NNW,346,4.0,4.0,84,0.00,BKN,,0.00,37.0,WeatherDisplay:10.37,2013-02-24 08:56:00,
2013-02-24 09:01:00,32.5,28.2,30.29,NNW,348,3.5,3.5,84,0.00,BKN,,0.00,40.0,WeatherDisplay:10.37,2013-02-24 09:01:00,
2013-02-24 09:06:00,32.6,28.3,30.28,North,350,5.8,5.8,84,0.00,BKN,,0.00,46.0,WeatherDisplay:10.37,2013-02-24 09:06:00,
2013-02-24 09:11:00,32.6,28.3,30.29,NNW,344,3.5,3.5,84,0.00,BKN,,0.00,46.0,WeatherDisplay:10.37,2013-02-24 09:11:00,
2013-02-24 09:16:00,32.7,28.4,30.29,NNW,346,6.9,6.9,84,0.00,BKN,,0.00,47.0,WeatherDisplay:10.37,2013-02-24 09:16:00,
2013-02-24 09:21:00,32.7,28.4,30.29,North,355,3.5,3.5,84,0.00,BKN,,0.00,49.0,WeatherDisplay:10.37,2013-02-24 09:21:00,
2013-02-24 09:26:00,32.8,28.5,30.29,North,349,6.0,6.0,84,0.00,BKN,,0.00,58.0,WeatherDisplay:10.37,2013-02-24 09:26:00,
2013-02-24 09:31:00,32.8,28.5,30.29,North,11,3.5,3.5,84,0.00,BKN,,0.00,58.0,WeatherDisplay:10.37,2013-02-24 09:31:00,
2013-02-24 09:36:00,32.9,28.6,30.28,North,9,6.9,6.9,84,0.00,BKN,,0.00,54.0,WeatherDisplay:10.37,2013-02-24 09:36:00,
2013-02-24 09:41:00,32.9,28.3,30.29,NW,319,5.8,5.8,83,0.00,BKN,,0.00,54.0,WeatherDisplay:10.37,2013-02-24 09:41:00,
2013-02-24 09:46:00,33.0,28.4,30.29,NNW,331,5.8,5.8,83,0.00,BKN,,0.00,49.0,WeatherDisplay:10.37,2013-02-24 09:46:00,
2013-02-24 09:51:00,33.0,28.4,30.29,NNW,333,2.3,2.3,83,0.00,BKN,,0.00,54.0,WeatherDisplay:10.37,2013-02-24 09:51:00,
2013-02-24 09:56:00,33.0,28.4,30.29,NNW,327,8.1,8.1,83,0.00,BKN,,0.00,69.0,WeatherDisplay:10.37,2013-02-24 09:56:00,
2013-02-24 10:01:00,33.1,28.5,30.29,NNW,329,5.8,5.8,83,0.00,BKN,,0.00,58.0,WeatherDisplay:10.37,2013-02-24 10:01:00,
2013-02-24 10:06:00,33.2,28.6,30.29,NNW,331,5.0,5.0,83,0.00,BKN,,0.00,60.0,WeatherDisplay:10.37,2013-02-24 10:06:00,
2013-02-24 10:11:00,33.2,28.6,30.29,NNW,347,11.5,11.5,83,0.00,BKN,,0.00,63.0,WeatherDisplay:10.37,2013-02-24 10:11:00,
2013-02-24 10:16:00,33.2,28.6,30.29,NNW,346,4.6,4.6,83,0.00,BKN,,0.00,74.0,WeatherDisplay:10.37,2013-02-24 10:16:00,
2013-02-24 10:21:00,33.3,28.7,30.29,NNW,342,3.5,3.5,83,0.00,BKN,,0.00,86.0,WeatherDisplay:10.37,2013-02-24 10:21:00,
2013-02-24 10:26:00,33.4,28.8,30.29,North,360,10.0,10.0,83,0.00,BKN,,0.00,83.0,WeatherDisplay:10.37,2013-02-24 10:26:00,
2013-02-24 10:31:00,33.4,28.8,30.29,NW,315,10.4,10.4,83,0.00,BKN,,0.00,102.0,WeatherDisplay:10.37,2013-02-24 10:31:00,
2013-02-24 10:36:00,33.6,29.0,30.29,NW,323,3.5,3.5,83,0.00,BKN,,0.00,100.0,WeatherDisplay:10.37,2013-02-24 10:36:00,
2013-02-24 10:41:00,33.7,28.8,30.29,North,355,11.5,11.5,82,0.00,BKN,,0.00,100.0,WeatherDisplay:10.37,2013-02-24 10:41:00,
2013-02-24 10:46:00,33.7,28.8,30.29,NNW,341,5.8,5.8,82,0.00,BKN,,0.00,105.0,WeatherDisplay:10.37,2013-02-24 10:46:00,
2013-02-24 10:51:00,33.8,28.9,30.29,North,5,8.1,8.1,82,0.00,BKN,,0.00,105.0,WeatherDisplay:10.37,2013-02-24 10:51:00,
2013-02-24 10:56:00,33.9,29.0,30.29,NW,318,3.5,3.5,82,0.00,BKN,,0.00,90.0,WeatherDisplay:10.37,2013-02-24 10:56:00,
2013-02-24 11:01:00,33.9,28.7,30.29,NNW,333,4.6,4.6,81,0.00,BKN,,0.00,76.0,WeatherDisplay:10.37,2013-02-24 11:01:00,
2013-02-24 11:06:00,33.9,28.7,30.29,NNW,344,3.5,3.5,81,0.00,BKN,,0.00,93.0,WeatherDisplay:10.37,2013-02-24 11:06:00,
2013-02-24 11:11:00,34.0,28.8,30.29,NW,320,10.4,10.4,81,0.00,BKN,,0.00,97.0,WeatherDisplay:10.37,2013-02-24 11:11:00,
2013-02-24 11:16:00,34.0,28.8,30.29,NNW,327,9.2,9.2,81,0.00,BKN,,0.00,91.0,WeatherDisplay:10.37,2013-02-24 11:16:00,
2013-02-24 11:21:00,34.1,28.9,30.29,NNW,333,11.5,11.5,81,0.00,BKN,,0.00,88.0,WeatherDisplay:10.37,2013-02-24 11:21:00,
2013-02-24 11:26:00,34.1,28.6,30.30,North,355,5.0,5.0,80,0.00,BKN,,0.00,90.0,WeatherDisplay:10.37,2013-02-24 11:26:00,
2013-02-24 11:31:00,34.3,28.8,30.30,North,360,5.8,5.8,80,0.00,BKN,,0.00,95.0,WeatherDisplay:10.37,2013-02-24 11:31:00,
2013-02-24 11:36:00,34.3,28.5,30.30,WNW,299,6.0,6.0,79,0.00,BKN,,0.00,100.0,WeatherDisplay:10.37,2013-02-24 11:36:00,
2013-02-24 11:41:00,34.3,28.5,30.30,NNW,333,5.8,5.8,79,0.00,BKN,,0.00,91.0,WeatherDisplay:10.37,2013-02-24 11:41:00,
2013-02-24 11:46:00,34.3,28.5,30.29,NNW,331,5.8,5.8,79,0.00,BKN,,0.00,83.0,WeatherDisplay:10.37,2013-02-24 11:46:00,
2013-02-24 11:51:00,34.4,28.6,30.29,NNW,329,5.8,5.8,79,0.00,BKN,,0.00,72.0,WeatherDisplay:10.37,2013-02-24 11:51:00,
2013-02-24 11:56:00,34.4,28.6,30.29,NNW,331,6.9,6.9,79,0.00,BKN,,0.00,72.0,WeatherDisplay:10.37,2013-02-24 11:56:00,
2013-02-24 12:01:00,34.4,28.6,30.29,NNW,328,3.5,3.5,79,0.00,BKN,,0.00,72.0,WeatherDisplay:10.37,2013-02-24 12:01:00,
2013-02-24 12:06:00,34.4,28.6,30.29,NW,318,6.9,6.9,79,0.00,BKN,,0.00,74.0,WeatherDisplay:10.37,2013-02-24 12:06:00,
2013-02-24 12:11:00,34.4,28.6,30.29,NNW,344,5.8,5.8,79,0.00,BKN,,0.00,76.0,WeatherDisplay:10.37,2013-02-24 12:11:00,
2013-02-24 12:16:00,34.4,28.6,30.29,NW,306,8.1,8.1,79,0.00,BKN,,0.00,76.0,WeatherDisplay:10.37,2013-02-24 12:16:00,
2013-02-24 12:21:00,34.4,28.6,30.29,NW,318,11.5,11.5,79,0.00,BKN,,0.00,70.0,WeatherDisplay:10.37,2013-02-24 12:21:00,
2013-02-24 12:26:00,34.3,28.5,30.29,NNE,14,11.5,11.5,79,0.00,BKN,,0.00,72.0,WeatherDisplay:10.37,2013-02-24 12:26:00,
2013-02-24 12:31:00,34.4,28.6,30.29,NNE,25,5.8,5.8,79,0.00,BKN,,0.00,65.0,WeatherDisplay:10.37,2013-02-24 12:31:00,
2013-02-24 12:36:00,34.4,28.6,30.29,North,351,6.9,6.9,79,0.00,BKN,,0.00,49.0,WeatherDisplay:10.37,2013-02-24 12:36:00,
2013-02-24 12:42:00,34.3,28.5,30.29,NNW,348,10.4,10.4,79,0.00,BKN,,0.00,53.0,WeatherDisplay:10.37,2013-02-24 12:42:00,
2013-02-24 12:47:00,34.3,28.5,30.29,North,360,12.7,12.7,79,0.00,BKN,,0.00,51.0,WeatherDisplay:10.37,2013-02-24 12:47:00,
2013-02-24 12:52:00,34.3,28.8,30.29,NNW,340,9.2,9.2,80,0.00,BKN,,0.00,53.0,WeatherDisplay:10.37,2013-02-24 12:52:00,
2013-02-24 12:57:00,34.3,28.8,30.29,NNE,23,11.5,11.5,80,0.00,BKN,,0.00,47.0,WeatherDisplay:10.37,2013-02-24 12:57:00,
2013-02-24 13:02:00,34.2,28.7,30.29,NW,318,7.0,7.0,80,0.00,BKN,,0.00,44.0,WeatherDisplay:10.37,2013-02-24 13:02:00,
2013-02-24 13:07:00,34.1,28.9,30.29,North,350,15.0,15.0,81,0.00,BKN,,0.00,42.0,WeatherDisplay:10.37,2013-02-24 13:07:00,
2013-02-24 13:12:00,34.0,28.8,30.29,North,360,6.9,6.9,81,0.00,BKN,,0.00,77.0,WeatherDisplay:10.37,2013-02-24 13:12:00,
2013-02-24 13:17:00,34.1,29.2,30.29,North,355,5.0,5.0,82,0.00,BKN,,0.00,79.0,WeatherDisplay:10.37,2013-02-24 13:17:00,
2013-02-24 13:22:00,34.1,29.2,30.29,North,9,8.1,8.1,82,0.00,BKN,,0.00,81.0,WeatherDisplay:10.37,2013-02-24 13:22:00,
2013-02-24 13:27:00,34.1,29.2,30.29,North,5,5.8,5.8,82,0.00,BKN,,0.00,69.0,WeatherDisplay:10.37,2013-02-24 13:27:00,
2013-02-24 13:32:00,34.2,29.3,30.28,NNW,336,11.5,11.5,82,0.00,BKN,,0.00,79.0,WeatherDisplay:10.37,2013-02-24 13:32:00,
2013-02-24 13:37:00,34.2,29.3,30.28,WNW,295,10.4,10.4,82,0.00,BKN,,0.00,81.0,WeatherDisplay:10.37,2013-02-24 13:37:00,
2013-02-24 13:42:00,34.2,29.3,30.29,North,350,11.5,11.5,82,0.00,BKN,,0.00,79.0,WeatherDisplay:10.37,2013-02-24 13:42:00,
2013-02-24 13:47:00,34.3,29.4,30.29,NNW,330,4.6,4.6,82,0.00,BKN,,0.00,90.0,WeatherDisplay:10.37,2013-02-24 13:47:00,
2013-02-24 13:52:00,34.3,29.1,30.28,NW,321,9.2,9.2,81,0.00,BKN,,0.00,105.0,WeatherDisplay:10.37,2013-02-24 13:52:00,
2013-02-24 13:57:00,34.4,29.2,30.28,NNW,346,5.8,5.8,81,0.00,BKN,,0.00,109.0,WeatherDisplay:10.37,2013-02-24 13:57:00,
2013-02-24 14:02:00,34.6,29.4,30.28,North,360,5.8,5.8,81,0.00,BKN,,0.00,95.0,WeatherDisplay:10.37,2013-02-24 14:02:00,
2013-02-24 14:07:00,34.7,29.5,30.28,NNE,22,6.0,6.0,81,0.00,BKN,,0.00,95.0,WeatherDisplay:10.37,2013-02-24 14:07:00,
2013-02-24 14:12:00,34.8,29.6,30.28,NNW,340,4.6,4.6,81,0.00,BKN,,0.00,118.0,WeatherDisplay:10.37,2013-02-24 14:12:00,
2013-02-24 14:17:00,34.8,29.3,30.28,North,360,13.8,13.8,80,0.00,BKN,,0.00,132.0,WeatherDisplay:10.37,2013-02-24 14:17:00,
2013-02-24 14:22:00,34.9,29.0,30.28,NW,312,4.6,4.6,79,0.00,BKN,,0.00,134.0,WeatherDisplay:10.37,2013-02-24 14:22:00,
2013-02-24 14:27:00,35.0,29.1,30.28,NNE,14,11.5,11.5,79,0.00,BKN,,0.00,132.0,WeatherDisplay:10.37,2013-02-24 14:27:00,
2013-02-24 14:32:00,35.2,29.0,30.28,NNW,342,10.4,10.4,78,0.00,BKN,,0.00,109.0,WeatherDisplay:10.37,2013-02-24 14:32:00,
2013-02-24 14:37:00,35.2,29.0,30.28,NW,326,4.0,4.0,78,0.00,BKN,,0.00,81.0,WeatherDisplay:10.37,2013-02-24 14:37:00,
2013-02-24 14:42:00,35.3,29.1,30.28,NNW,340,4.0,4.0,78,0.00,BKN,,0.00,63.0,WeatherDisplay:10.37,2013-02-24 14:42:00,
2013-02-24 14:47:00,35.3,28.8,30.28,NW,318,6.9,6.9,77,0.00,BKN,,0.00,42.0,WeatherDisplay:10.37,2013-02-24 14:47:00,
2013-02-24 14:52:00,35.2,28.7,30.28,NNW,342,6.9,6.9,77,0.00,BKN,,0.00,42.0,WeatherDisplay:10.37,2013-02-24 14:52:00,
2013-02-24 14:58:00,35.1,28.6,30.28,North,11,9.2,9.2,77,0.00,BKN,,0.00,49.0,WeatherDisplay:10.37,2013-02-24 14:58:00,
2013-02-24 15:03:00,35.1,28.6,30.28,North,351,4.6,4.6,77,0.00,BKN,,0.00,33.0,WeatherDisplay:10.37,2013-02-24 15:03:00,
2013-02-24 15:08:00,35.1,28.9,30.28,NNE,18,9.2,9.2,78,0.00,BKN,,0.00,33.0,WeatherDisplay:10.37,2013-02-24 15:08:00,
2013-02-24 15:13:00,35.0,28.8,30.28,North,360,6.9,6.9,78,0.00,BKN,,0.00,39.0,WeatherDisplay:10.37,2013-02-24 15:13:00,
2013-02-24 15:18:00,35.0,28.8,30.28,NNW,334,9.2,9.2,78,0.00,BKN,,0.00,25.0,WeatherDisplay:10.37,2013-02-24 15:18:00,
2013-02-24 15:23:00,34.9,28.7,30.28,North,355,11.5,11.5,78,0.00,BKN,,0.00,28.0,WeatherDisplay:10.37,2013-02-24 15:23:00,
2013-02-24 15:28:00,34.9,28.7,30.28,North,5,9.0,9.0,78,0.00,BKN,,0.00,33.0,WeatherDisplay:10.37,2013-02-24 15:28:00,
2013-02-24 15:33:00,34.8,29.0,30.28,North,350,6.9,6.9,79,0.00,BKN,,0.00,40.0,WeatherDisplay:10.37,2013-02-24 15:33:00,
2013-02-24 15:38:00,34.8,29.0,30.28,NW,313,9.2,9.2,79,0.00,BKN,,0.00,35.0,WeatherDisplay:10.37,2013-02-24 15:38:00,
2013-02-24 15:43:00,34.8,29.0,30.28,North,355,2.0,2.0,79,0.00,BKN,,0.00,32.0,WeatherDisplay:10.37,2013-02-24 15:43:00,
2013-02-24 15:48:00,34.8,29.0,30.28,North,5,9.2,9.2,79,0.00,BKN,,0.00,28.0,WeatherDisplay:10.37,2013-02-24 15:48:00,
2013-02-24 15:53:00,34.7,28.9,30.28,North,5,11.5,11.5,79,0.00,BKN,,0.00,25.0,WeatherDisplay:10.37,2013-02-24 15:53:00,
2013-02-24 15:58:00,34.7,28.9,30.28,NNE,13,6.9,6.9,79,0.00,BKN,,0.00,21.0,WeatherDisplay:10.37,2013-02-24 15:58:00,
2013-02-24 16:03:00,34.7,28.9,30.28,NNW,347,11.5,11.5,79,0.00,BKN,,0.00,18.0,WeatherDisplay:10.37,2013-02-24 16:03:00,
2013-02-24 16:08:00,34.6,28.8,30.28,NW,325,12.7,12.7,79,0.00,BKN,,0.00,16.0,WeatherDisplay:10.37,2013-02-24 16:08:00,
2013-02-24 16:13:00,34.7,28.9,30.28,NNW,343,5.8,5.8,79,0.00,BKN,,0.00,23.0,WeatherDisplay:10.37,2013-02-24 16:13:00,
2013-02-24 16:18:00,34.7,28.9,30.29,NNW,339,5.8,5.8,79,0.00,BKN,,0.00,18.0,WeatherDisplay:10.37,2013-02-24 16:18:00,
2013-02-24 16:23:00,34.6,28.8,30.28,North,349,9.2,9.2,79,0.00,BKN,,0.00,16.0,WeatherDisplay:10.37,2013-02-24 16:23:00,
2013-02-24 16:28:00,34.6,28.8,30.29,NNW,348,6.9,6.9,79,0.00,BKN,,0.00,21.0,WeatherDisplay:10.37,2013-02-24 16:28:00,
2013-02-24 16:33:00,34.6,29.1,30.29,North,349,7.0,7.0,80,0.00,BKN,,0.00,14.0,WeatherDisplay:10.37,2013-02-24 16:33:00,
2013-02-24 16:38:00,34.4,28.9,30.29,NNW,330,6.9,6.9,80,0.00,BKN,,0.00,12.0,WeatherDisplay:10.37,2013-02-24 16:38:00,
2013-02-24 16:43:00,34.3,29.1,30.29,NNE,26,9.2,9.2,81,0.00,BKN,,0.00,9.0,WeatherDisplay:10.37,2013-02-24 16:43:00,
2013-02-24 16:48:00,34.3,29.1,30.29,NNE,28,3.5,5.1,81,0.00,BKN,,0.00,9.0,WeatherDisplay:10.37,2013-02-24 16:48:00,
2013-02-24 16:53:00,34.2,29.0,30.29,ENE,67,9.2,9.2,81,0.00,BKN,,0.00,9.0,WeatherDisplay:10.37,2013-02-24 16:53:00,
2013-02-24 16:58:00,34.1,28.9,30.29,North,5,9.2,9.2,81,0.00,BKN,,0.00,9.0,WeatherDisplay:10.37,2013-02-24 16:58:00,
2013-02-24 17:03:00,34.2,29.0,30.29,NNW,344,10.4,10.4,81,0.00,BKN,,0.00,5.0,WeatherDisplay:10.37,2013-02-24 17:03:00,
2013-02-24 17:08:00,34.2,28.7,30.29,North,355,9.2,9.2,80,0.00,BKN,,0.00,0.0,WeatherDisplay:10.37,2013-02-24 17:08:00,
2013-02-24 17:13:00,34.2,28.7,30.30,North,350,5.8,5.8,80,0.00,OVC,,0.00,0.0,WeatherDisplay:10.37,2013-02-24 17:13:00,
2013-02-24 17:18:00,34.2,28.7,30.30,North,355,3.5,3.5,80,0.00,OVC,,0.00,0.0,WeatherDisplay:10.37,2013-02-24 17:18:00,
2013-02-24 17:23:00,34.2,28.4,30.30,North,360,4.6,4.6,79,0.00,OVC,,0.00,0.0,WeatherDisplay:10.37,2013-02-24 17:23:00,
2013-02-24 17:28:00,34.2,28.4,30.30,North,360,13.8,13.8,79,0.00,OVC,,0.00,0.0,WeatherDisplay:10.37,2013-02-24 17:28:00,
2013-02-24 17:33:00,34.2,28.1,30.30,NNW,348,12.7,12.7,78,0.00,OVC,,0.00,0.0,WeatherDisplay:10.37,2013-02-24 17:33:00,
2013-02-24 17:38:00,34.2,28.1,30.30,NNE,20,9.2,9.2,78,0.00,OVC,,0.00,0.0,WeatherDisplay:10.37,2013-02-24 17:38:00,
2013-02-24 17:43:00,34.2,28.1,30.31,NE,48,4.6,4.6,78,0.00,OVC,,0.00,0.0,WeatherDisplay:10.37,2013-02-24 17:43:00,
2013-02-24 17:49:00,34.2,28.1,30.31,North,351,4.0,4.6,78,0.00,OVC,,0.00,0.0,WeatherDisplay:10.37,2013-02-24 17:49:00,
2013-02-24 17:54:00,34.2,28.1,30.31,NNW,340,5.8,5.8,78,0.00,OVC,,0.00,0.0,WeatherDisplay:10.37,2013-02-24 17:54:00,
2013-02-24 17:59:00,34.1,28.0,30.31,North,360,6.9,6.9,78,0.00,OVC,,0.00,0.0,WeatherDisplay:10.37,2013-02-24 17:59:00,
2013-02-24 18:04:00,34.1,27.6,30.31,NNE,13,6.9,6.9,77,0.00,CLR,,0.00,0.0,WeatherDisplay:10.37,2013-02-24 18:04:00,
2013-02-24 18:09:00,34.1,27.6,30.31,NNE,13,6.9,6.9,77,0.00,CLR,,0.00,0.0,WeatherDisplay:10.37,2013-02-24 18:09:00,
2013-02-24 18:14:00,34.1,27.6,30.32,North,349,6.9,6.9,77,0.00,CLR,,0.00,0.0,WeatherDisplay:10.37,2013-02-24 18:14:00,
2013-02-24 18:19:00,34.1,27.3,30.31,NW,319,9.2,9.2,76,0.00,CLR,,0.00,0.0,WeatherDisplay:10.37,2013-02-24 18:19:00,
2013-02-24 18:24:00,34.2,27.1,30.32,North,360,11.5,11.5,75,0.00,CLR,,0.00,0.0,WeatherDisplay:10.37,2013-02-24 18:24:00,
2013-02-24 18:29:00,34.2,27.1,30.32,North,5,4.6,4.6,75,0.00,CLR,,0.00,0.0,WeatherDisplay:10.37,2013-02-24 18:29:00,
2013-02-24 18:34:00,34.2,27.1,30.32,North,9,6.9,6.9,75,0.00,CLR,,0.00,0.0,WeatherDisplay:10.37,2013-02-24 18:34:00,
2013-02-24 18:39:00,34.2,27.1,30.31,North,5,4.6,4.6,75,0.00,CLR,,0.00,0.0,WeatherDisplay:10.37,2013-02-24 18:39:00,
2013-02-24 18:44:00,34.2,27.1,30.32,North,9,3.5,3.5,75,0.00,CLR,,0.00,0.0,WeatherDisplay:10.37,2013-02-24 18:44:00,
2013-02-24 18:49:00,34.2,27.1,30.32,North,360,4.6,4.6,75,0.00,CLR,,0.00,0.0,WeatherDisplay:10.37,2013-02-24 18:49:00,
2013-02-24 18:54:00,34.2,27.1,30.32,North,355,5.8,5.8,75,0.00,CLR,,0.00,0.0,WeatherDisplay:10.37,2013-02-24 18:54:00,
2013-02-24 18:59:00,34.2,27.1,30.32,North,349,9.2,9.2,75,0.00,CLR,,0.00,0.0,WeatherDisplay:10.37,2013-02-24 18:59:00,
2013-02-24 19:04:00,34.3,27.2,30.32,NNE,15,4.6,4.6,75,0.00,CLR,,0.00,0.0,WeatherDisplay:10.37,2013-02-24 19:04:00,
2013-02-24 19:09:00,34.2,27.4,30.32,North,360,6.9,6.9,76,0.00,CLR,,0.00,0.0,WeatherDisplay:10.37,2013-02-24 19:09:00,
2013-02-24 19:14:00,34.2,27.4,30.32,NNE,17,6.9,6.9,76,0.00,CLR,,0.00,0.0,WeatherDisplay:10.37,2013-02-24 19:14:00,
2013-02-24 19:19:00,34.2,27.4,30.32,NNW,340,4.0,4.0,76,0.00,CLR,,0.00,0.0,WeatherDisplay:10.37,2013-02-24 19:19:00,
2013-02-24 19:24:00,34.2,27.4,30.32,North,11,1.2,1.2,76,0.00,CLR,,0.00,0.0,WeatherDisplay:10.37,2013-02-24 19:24:00,
2013-02-24 19:29:00,34.2,27.4,30.32,ENE,65,9.2,9.2,76,0.00,CLR,,0.00,0.0,WeatherDisplay:10.37,2013-02-24 19:29:00,
2013-02-24 19:34:00,34.2,27.4,30.32,ENE,58,5.8,5.8,76,0.00,CLR,,0.00,0.0,WeatherDisplay:10.37,2013-02-24 19:34:00,
2013-02-24 19:39:00,34.1,27.6,30.32,North,355,4.0,4.0,77,0.00,CLR,,0.00,0.0,WeatherDisplay:10.37,2013-02-24 19:39:00,
2013-02-24 19:44:00,34.1,27.6,30.32,NNW,344,8.0,8.0,77,0.00,CLR,,0.00,0.0,WeatherDisplay:10.37,2013-02-24 19:44:00,
2013-02-24 19:49:00,34.1,27.3,30.32,North,355,5.8,5.8,76,0.00,CLR,,0.00,0.0,WeatherDisplay:10.37,2013-02-24 19:49:00,
2013-02-24 19:54:00,34.2,27.4,30.32,NW,304,10.4,10.4,76,0.00,CLR,,0.00,0.0,WeatherDisplay:10.37,2013-02-24 19:54:00,
2013-02-24 19:59:00,34.2,27.1,30.32,North,355,4.6,4.6,75,0.00,CLR,,0.00,0.0,WeatherDisplay:10.37,2013-02-24 19:59:00,
2013-02-24 20:04:00,34.2,27.1,30.32,NNW,331,6.9,6.9,75,0.00,CLR,,0.00,0.0,WeatherDisplay:10.37,2013-02-24 20:04:00,
2013-02-24 20:09:00,34.2,27.1,30.32,NNW,337,6.0,6.0,75,0.00,CLR,,0.00,0.0,WeatherDisplay:10.37,2013-02-24 20:09:00,
2013-02-24 20:14:00,34.2,27.1,30.32,NNW,331,8.1,8.1,75,0.00,CLR,,0.00,0.0,WeatherDisplay:10.37,2013-02-24 20:14:00,
2013-02-24 20:19:00,34.2,27.1,30.32,NNW,347,3.5,3.5,75,0.00,CLR,,0.00,0.0,WeatherDisplay:10.37,2013-02-24 20:19:00,
2013-02-24 20:24:00,34.2,27.1,30.32,NW,319,6.9,6.9,75,0.00,CLR,,0.00,0.0,WeatherDisplay:10.37,2013-02-24 20:24:00,
2013-02-24 20:29:00,34.3,26.9,30.32,North,5,3.5,3.5,74,0.00,CLR,,0.00,0.0,WeatherDisplay:10.37,2013-02-24 20:29:00,
2013-02-24 20:34:00,34.3,26.9,30.32,NNW,334,3.5,3.5,74,0.00,CLR,,0.00,0.0,WeatherDisplay:10.37,2013-02-24 20:34:00,
2013-02-24 20:39:00,34.3,26.9,30.32,NW,321,6.9,6.9,74,0.00,CLR,,0.00,0.0,WeatherDisplay:10.37,2013-02-24 20:39:00,
2013-02-24 20:44:00,34.3,26.9,30.32,NW,323,4.6,4.6,74,0.00,CLR,,0.00,0.0,WeatherDisplay:10.37,2013-02-24 20:44:00,
2013-02-24 20:49:00,34.3,26.9,30.32,North,9,10.4,10.4,74,0.00,CLR,,0.00,0.0,WeatherDisplay:10.37,2013-02-24 20:49:00,
2013-02-24 20:54:00,34.3,26.9,30.32,NNW,331,5.8,5.8,74,0.00,CLR,,0.00,0.0,WeatherDisplay:10.37,2013-02-24 20:54:00,
2013-02-24 20:59:00,34.3,26.9,30.33,NNW,346,5.8,5.8,74,0.00,CLR,,0.00,0.0,WeatherDisplay:10.37,2013-02-24 20:59:00,
2013-02-24 21:04:00,34.3,26.9,30.33,North,355,9.0,9.0,74,0.00,CLR,,0.00,0.0,WeatherDisplay:10.37,2013-02-24 21:04:00,
2013-02-24 21:09:00,34.3,26.9,30.33,North,355,5.0,5.0,74,0.00,CLR,,0.00,0.0,WeatherDisplay:10.37,2013-02-24 21:09:00,
2013-02-24 21:14:00,34.3,26.9,30.33,North,360,10.4,10.4,74,0.00,CLR,,0.00,0.0,WeatherDisplay:10.37,2013-02-24 21:14:00,
2013-02-24 21:19:00,34.3,26.9,30.33,North,355,10.4,10.4,74,0.00,CLR,,0.00,0.0,WeatherDisplay:10.37,2013-02-24 21:19:00,
2013-02-24 21:24:00,34.3,26.9,30.33,NNW,336,6.9,6.9,74,0.00,CLR,,0.00,0.0,WeatherDisplay:10.37,2013-02-24 21:24:00,
2013-02-24 21:29:00,34.3,26.9,30.33,NW,326,10.4,10.4,74,0.00,CLR,,0.00,0.0,WeatherDisplay:10.37,2013-02-24 21:29:00,
2013-02-24 21:34:00,34.3,27.2,30.33,NE,47,3.5,3.5,75,0.00,CLR,,0.00,0.0,WeatherDisplay:10.37,2013-02-24 21:34:00,
2013-02-24 21:39:00,34.3,27.2,30.33,NNW,348,6.0,6.0,75,0.00,CLR,,0.00,0.0,WeatherDisplay:10.37,2013-02-24 21:39:00,
2013-02-24 21:44:00,34.2,27.1,30.33,North,355,2.3,0.0,75,0.00,CLR,,0.00,0.0,WeatherDisplay:10.37,2013-02-24 21:44:00,
2013-02-24 21:49:00,34.2,27.4,30.33,North,360,10.0,10.0,76,0.00,CLR,,0.00,0.0,WeatherDisplay:10.37,2013-02-24 21:49:00,
2013-02-24 21:54:00,34.1,27.3,30.33,North,355,3.5,3.5,76,0.00,CLR,,0.00,0.0,WeatherDisplay:10.37,2013-02-24 21:54:00,
2013-02-24 21:59:00,34.1,27.6,30.33,North,360,9.2,9.2,77,0.00,CLR,,0.00,0.0,WeatherDisplay:10.37,2013-02-24 21:59:00,
2013-02-24 22:04:00,34.1,27.6,30.33,North,355,6.9,6.9,77,0.00,CLR,,0.00,0.0,WeatherDisplay:10.37,2013-02-24 22:04:00,
2013-02-24 22:09:00,34.1,27.6,30.33,North,355,3.5,3.5,77,0.00,CLR,,0.00,0.0,WeatherDisplay:10.37,2013-02-24 22:09:00,
2013-02-24 22:14:00,34.0,27.5,30.33,NNW,338,3.5,3.5,77,0.00,CLR,,0.00,0.0,WeatherDisplay:10.37,2013-02-24 22:14:00,
2013-02-24 22:19:00,34.1,27.6,30.33,NNW,342,3.5,3.5,77,0.00,CLR,,0.00,0.0,WeatherDisplay:10.37,2013-02-24 22:19:00,
2013-02-24 22:24:00,34.0,27.5,30.33,NNW,342,3.5,3.5,77,0.00,CLR,,0.00,0.0,WeatherDisplay:10.37,2013-02-24 22:24:00,
2013-02-24 22:29:00,34.0,27.5,30.33,NNW,331,5.8,5.8,77,0.00,CLR,,0.00,0.0,WeatherDisplay:10.37,2013-02-24 22:29:00,
2013-02-24 22:34:00,34.0,27.5,30.33,NW,317,3.5,3.5,77,0.00,CLR,,0.00,0.0,WeatherDisplay:10.37,2013-02-24 22:34:00,
2013-02-24 22:39:00,34.0,27.9,30.32,NW,311,2.3,2.3,78,0.00,CLR,,0.00,0.0,WeatherDisplay:10.37,2013-02-24 22:39:00,
2013-02-24 22:44:00,34.0,27.9,30.32,NW,321,4.6,4.6,78,0.00,CLR,,0.00,0.0,WeatherDisplay:10.37,2013-02-24 22:44:00,
2013-02-24 22:49:00,33.9,27.8,30.33,NNW,327,3.5,3.5,78,0.00,CLR,,0.00,0.0,WeatherDisplay:10.37,2013-02-24 22:49:00,
2013-02-24 22:54:00,33.9,27.8,30.33,NNW,329,3.5,3.5,78,0.00,CLR,,0.00,0.0,WeatherDisplay:10.37,2013-02-24 22:54:00,
2013-02-24 23:00:00,33.7,27.6,30.33,NW,310,5.8,5.8,78,0.00,CLR,,0.00,0.0,WeatherDisplay:10.37,2013-02-24 23:00:00,
2013-02-24 23:05:00,33.6,27.5,30.32,NNW,336,8.1,8.1,78,0.00,CLR,,0.00,0.0,WeatherDisplay:10.37,2013-02-24 23:05:00,
2013-02-24 23:10:00,33.5,27.4,30.32,NW,315,4.6,4.6,78,0.00,CLR,,0.00,0.0,WeatherDisplay:10.37,2013-02-24 23:10:00,
2013-02-24 23:15:00,33.4,27.3,30.32,NW,316,4.0,4.0,78,0.00,CLR,,0.00,0.0,WeatherDisplay:10.37,2013-02-24 23:15:00,
2013-02-24 23:20:00,33.4,27.6,30.32,NW,319,9.2,9.2,79,0.00,CLR,,0.00,0.0,WeatherDisplay:10.37,2013-02-24 23:20:00,
2013-02-24 23:25:00,33.4,27.6,30.32,NW,322,3.5,3.5,79,0.00,CLR,,0.00,0.0,WeatherDisplay:10.37,2013-02-24 23:25:00,
2013-02-24 23:30:00,33.4,27.6,30.32,NW,325,3.5,3.5,79,0.00,CLR,,0.00,0.0,WeatherDisplay:10.37,2013-02-24 23:30:00,
2013-02-24 23:35:00,33.5,27.7,30.32,NNW,342,7.0,7.0,79,0.00,CLR,,0.00,0.0,WeatherDisplay:10.37,2013-02-24 23:35:00,
2013-02-24 23:40:00,33.5,27.7,30.32,North,350,4.6,4.6,79,0.00,CLR,,0.00,0.0,WeatherDisplay:10.37,2013-02-24 23:40:00,
2013-02-24 23:45:00,33.5,27.7,30.32,NW,314,4.0,4.0,79,0.00,CLR,,0.00,0.0,WeatherDisplay:10.37,2013-02-24 23:45:00,
2013-02-24 23:50:00,33.6,27.8,30.32,NNW,327,10.4,10.4,79,0.00,CLR,,0.00,0.0,WeatherDisplay:10.37,2013-02-24 23:50:00,
2013-02-24 23:55:00,33.6,27.8,30.32,North,360,4.6,4.6,79,0.00,CLR,,0.00,0.0,WeatherDisplay:10.37,2013-02-24 23:55:00,